This is the latest recevied weather packets stored in our database for station/object DG6YGE-6. If no packets are shown the sender has not sent any weather packets the latest 10 day(s).
| Time | Temp. | Humidity | Pressure | Rain* | Wind** | Luminosity | Snow |
|---|---|---|---|---|---|---|---|
| 1777768152 | 14.44° C | 89% | 1012.6 hPa | 0.25 mm | - | 0 W/m² | - |
| 1777767552 | 14.44° C | 89% | 1012.8 hPa | 0 mm | - | 0 W/m² | - |
| 1777766952 | 14.44° C | 88% | 1013 hPa | 0 mm | - | 0 W/m² | - |
| 1777766352 | 15° C | 87% | 1013.1 hPa | 0 mm | - | 0 W/m² | - |
| 1777765752 | 15° C | 87% | 1013 hPa | 0 mm | - | 0 W/m² | - |
| 1777765152 | 15.56° C | 87% | 1013 hPa | 0.51 mm | - | 0 W/m² | - |
| 1777764552 | 15.56° C | 87% | 1013.2 hPa | 0.51 mm | - | 0 W/m² | - |
| 1777763952 | 16.11° C | 86% | 1013.2 hPa | 0.51 mm | - | 0 W/m² | - |
| 1777763352 | 16.11° C | 86% | 1013.3 hPa | 0.51 mm | - | 0 W/m² | - |
| 1777762753 | 16.11° C | 85% | 1013.3 hPa | 0.51 mm | - | 0 W/m² | - |
| 1777762152 | 16.11° C | 84% | 1012.9 hPa | 0.51 mm | - | 0 W/m² | - |
| 1777761552 | 16.11° C | 83% | 1014 hPa | 0 mm | - | 0 W/m² | - |
| 1777760952 | 16.11° C | 83% | 1013.8 hPa | 0 mm | - | 0 W/m² | - |
| 1777759752 | 16.67° C | 82% | 1014.1 hPa | 0 mm | - | 0 W/m² | - |
| 1777759152 | 16.67° C | 82% | 1014.3 hPa | 0 mm | - | 0 W/m² | - |
| 1777758552 | 16.67° C | 81% | 1014.3 hPa | 0 mm | - | 0 W/m² | - |
| 1777757952 | 17.22° C | 80% | 1014.6 hPa | 0 mm | - | 0 W/m² | - |
| 1777757351 | 17.78° C | 77% | 1014.6 hPa | 0 mm | - | 0 W/m² | - |
| 1777756752 | 18.33° C | 73% | 1013.8 hPa | 0 mm | - | 0 W/m² | - |
| 1777756152 | 18.33° C | 72% | 1013.3 hPa | 0 mm | - | 0 W/m² | - |
| 1777755552 | 18.89° C | 70% | 1013.6 hPa | 0 mm | - | 0 W/m² | - |
| 1777754952 | 18.89° C | 69% | 1013.5 hPa | 0 mm | - | 0 W/m² | - |
| 1777754351 | 19.44° C | 68% | 1014.1 hPa | 0 mm | - | 0 W/m² | - |
| 1777753752 | 18.33° C | 69% | 1014.3 hPa | 0 mm | - | 0 W/m² | - |
| 1777753152 | 18.33° C | 73% | 1013.5 hPa | 0 mm | - | 0 W/m² | - |
* Rain latest hour (hover to see other rain measurements)
** Current wind speed in m/s (hover to see current wind gust speed)